createdAt,value
2023-04-11T00:01:43.843Z,18.90
2023-04-11T00:04:17.952Z,19.50
2023-04-11T00:06:51.872Z,18.60
2023-04-11T00:09:25.736Z,17.10
2023-04-11T00:12:02.955Z,17.40
2023-04-11T00:14:36.766Z,17.00
2023-04-11T00:17:13.223Z,17.60
2023-04-11T00:19:47.525Z,16.80
2023-04-11T00:22:24.633Z,15.80
2023-04-11T00:27:30.846Z,15.20
2023-04-11T00:30:04.612Z,15.70
2023-04-11T00:32:38.788Z,17.40
2023-04-11T00:35:13.457Z,17.40
2023-04-11T00:37:47.679Z,16.60
2023-04-11T00:40:21.615Z,14.30
2023-04-11T00:42:55.623Z,14.40
2023-04-11T00:45:29.598Z,16.30
2023-04-11T00:48:03.584Z,16.60
2023-04-11T00:50:37.297Z,17.60
2023-04-11T00:53:12.124Z,17.70
2023-04-11T00:55:46.135Z,16.20
2023-04-11T00:58:19.834Z,16.00
2023-04-11T01:00:53.518Z,18.70
2023-04-11T01:03:27.569Z,19.00
2023-04-11T01:06:01.463Z,17.40
2023-04-11T01:08:36.014Z,20.30
2023-04-11T01:11:11.096Z,18.00
2023-04-11T01:13:45.407Z,19.50
2023-04-11T01:16:21.942Z,19.30
2023-04-11T01:18:56.405Z,20.50
2023-04-11T01:21:30.487Z,21.20
2023-04-11T01:24:04.458Z,20.70
2023-04-11T01:26:38.045Z,19.90
2023-04-11T01:29:12.104Z,20.00
2023-04-11T01:31:47.045Z,21.10
2023-04-11T01:34:21.453Z,19.00
2023-04-11T01:36:55.225Z,19.70
2023-04-11T01:39:29.257Z,19.10
2023-04-11T01:42:04.607Z,20.60
2023-04-11T01:44:39.147Z,20.40
2023-04-11T01:47:12.882Z,21.50
2023-04-11T01:49:47.667Z,22.30
2023-04-11T01:52:21.579Z,19.10
2023-04-11T01:54:55.517Z,19.30
2023-04-11T01:57:29.960Z,19.10
2023-04-11T02:00:04.593Z,19.10
2023-04-11T02:02:38.422Z,21.60
2023-04-11T02:05:13.504Z,20.60
2023-04-11T02:07:47.448Z,19.60
2023-04-11T02:10:21.321Z,21.80
2023-04-11T02:12:55.238Z,22.50
2023-04-11T02:15:29.487Z,22.90
2023-04-11T02:18:03.033Z,21.20
2023-04-11T02:20:37.868Z,20.40
2023-04-11T02:23:11.744Z,20.30
2023-04-11T02:25:46.162Z,19.10
2023-04-11T02:28:20.093Z,19.10
2023-04-11T02:30:54.448Z,21.60
2023-04-11T02:33:28.145Z,22.90
2023-04-11T02:36:04.230Z,21.20
2023-04-11T02:38:38.596Z,20.50
2023-04-11T02:41:12.742Z,19.80
2023-04-11T02:43:47.126Z,19.90
2023-04-11T02:46:21.357Z,21.90
2023-04-11T02:48:55.327Z,21.10
2023-04-11T02:51:29.483Z,19.80
2023-04-11T02:54:03.342Z,21.00
2023-04-11T02:56:39.330Z,20.10
2023-04-11T02:59:13.161Z,19.40
2023-04-11T03:01:47.399Z,21.20
2023-04-11T03:04:21.281Z,20.40
2023-04-11T03:06:55.452Z,21.10
2023-04-11T03:09:29.111Z,20.40
2023-04-11T03:12:02.992Z,21.50
2023-04-11T03:14:36.681Z,20.70
2023-04-11T03:17:10.693Z,19.20
2023-04-11T03:19:44.458Z,17.70
2023-04-11T03:22:18.559Z,20.10
2023-04-11T03:24:52.252Z,18.70
2023-04-11T03:27:25.876Z,20.80
2023-04-11T03:29:59.657Z,20.20
2023-04-11T03:32:33.574Z,19.30
2023-04-11T03:35:09.286Z,20.80
2023-04-11T03:37:42.976Z,21.40
2023-04-11T03:40:18.927Z,21.10
2023-04-11T03:42:53.556Z,20.60
2023-04-11T03:45:28.425Z,18.70
2023-04-11T03:48:02.375Z,18.40
2023-04-11T03:50:37.372Z,16.90
2023-04-11T03:53:11.532Z,16.90
2023-04-11T03:55:47.069Z,15.90
2023-04-11T03:58:22.024Z,16.90
2023-04-11T04:00:55.946Z,16.80
2023-04-11T04:03:30.027Z,15.80
2023-04-11T04:06:14.820Z,13.90
2023-04-11T04:08:49.817Z,15.20
2023-04-11T04:11:24.324Z,15.90
2023-04-11T04:13:58.818Z,14.80
2023-04-11T04:16:34.777Z,14.60
2023-04-11T04:19:11.162Z,13.70
2023-04-11T04:21:47.890Z,13.70
2023-04-11T04:24:21.738Z,15.10
2023-04-11T04:26:58.375Z,14.60
2023-04-11T04:29:39.116Z,13.70
2023-04-11T04:32:15.231Z,15.90
2023-04-11T04:34:50.368Z,15.00
2023-04-11T04:37:28.680Z,12.90
2023-04-11T04:40:08.836Z,13.00
2023-04-11T04:42:45.865Z,13.70
2023-04-11T04:45:21.322Z,13.90
2023-04-11T04:47:56.111Z,14.50
2023-04-11T04:50:30.396Z,11.70
2023-04-11T04:53:04.642Z,13.30
2023-04-11T04:55:38.631Z,13.60
2023-04-11T04:58:13.267Z,14.80
2023-04-11T05:00:50.087Z,13.00
2023-04-11T05:03:24.547Z,12.70
2023-04-11T05:06:01.771Z,18.30
2023-04-11T05:08:36.225Z,11.50
2023-04-11T05:11:10.290Z,12.00
2023-04-11T05:13:43.903Z,12.30
2023-04-11T05:16:18.105Z,12.80
2023-04-11T05:18:51.705Z,9.10
2023-04-11T05:21:25.686Z,8.80
2023-04-11T05:23:59.391Z,9.90
2023-04-11T05:26:33.472Z,9.10
2023-04-11T05:29:07.531Z,10.10
2023-04-11T05:31:41.764Z,8.00
2023-04-11T05:34:16.945Z,9.30
2023-04-11T05:36:51.795Z,8.20
2023-04-11T05:39:25.887Z,8.60
2023-04-11T05:42:00.029Z,9.70
2023-04-11T05:44:33.952Z,7.90
2023-04-11T05:47:07.641Z,6.10
2023-04-11T05:49:42.753Z,5.70
2023-04-11T05:52:17.017Z,3.60
2023-04-11T05:54:58.505Z,3.30
2023-04-11T05:57:32.361Z,3.20
2023-04-11T06:00:13.257Z,4.90
2023-04-11T06:02:48.278Z,4.80
2023-04-11T06:05:22.805Z,4.00
2023-04-11T06:07:59.256Z,2.90
2023-04-11T06:10:34.207Z,2.40
2023-04-11T06:13:09.413Z,3.50
2023-04-11T06:15:43.524Z,2.80
2023-04-11T06:18:17.460Z,1.70
2023-04-11T06:20:51.453Z,1.80
2023-04-11T06:23:25.443Z,3.30
2023-04-11T06:26:01.640Z,3.60
2023-04-11T06:28:35.767Z,2.80
2023-04-11T06:31:13.006Z,3.40
2023-04-11T06:33:47.052Z,3.80
2023-04-11T06:36:21.081Z,4.50
2023-04-11T06:38:54.800Z,3.90
2023-04-11T06:41:29.315Z,3.20
2023-04-11T06:44:03.464Z,4.00
2023-04-11T06:46:37.284Z,3.70
2023-04-11T06:49:12.314Z,3.50
2023-04-11T06:51:47.755Z,2.80
2023-04-11T06:54:24.673Z,3.40
2023-04-11T06:56:59.618Z,3.00
2023-04-11T06:59:34.017Z,2.90
2023-04-11T07:02:08.407Z,2.50
2023-04-11T07:04:42.820Z,2.80
2023-04-11T07:07:17.495Z,3.10
2023-04-11T07:09:51.703Z,3.10
2023-04-11T07:12:25.480Z,3.50
2023-04-11T07:14:59.639Z,3.80
2023-04-11T07:17:34.049Z,3.60
2023-04-11T07:20:12.287Z,3.70
2023-04-11T07:22:46.824Z,4.30
2023-04-11T07:25:23.198Z,4.90
2023-04-11T07:27:57.590Z,4.80
2023-04-11T07:33:06.214Z,5.10
2023-04-11T07:35:40.332Z,3.80
2023-04-11T07:38:16.196Z,3.60
2023-04-11T07:40:50.674Z,3.70
2023-04-11T07:43:25.666Z,4.50
2023-04-11T07:46:00.390Z,4.10
2023-04-11T07:48:34.953Z,4.50
2023-04-11T07:51:09.848Z,4.30
2023-04-11T07:53:43.609Z,5.90
2023-04-11T07:56:18.714Z,3.90
2023-04-11T07:58:53.383Z,3.60
2023-04-11T08:01:28.475Z,4.90
2023-04-11T08:04:27.736Z,5.00
2023-04-11T08:07:04.027Z,5.10
2023-04-11T08:09:42.992Z,5.90
2023-04-11T08:12:17.259Z,4.30
2023-04-11T08:14:55.411Z,4.20
2023-04-11T08:17:29.922Z,4.50
2023-04-11T08:20:05.633Z,5.10
2023-04-11T08:22:42.626Z,5.00
2023-04-11T08:25:19.704Z,5.50
2023-04-11T08:27:56.278Z,5.00
2023-04-11T08:30:30.661Z,4.00
2023-04-11T08:33:05.207Z,4.50
2023-04-11T08:35:43.580Z,4.30
2023-04-11T08:38:19.337Z,4.70
2023-04-11T08:43:26.395Z,3.50
2023-04-11T08:46:00.550Z,4.10
2023-04-11T08:48:34.488Z,3.30
2023-04-11T08:51:18.511Z,3.50
2023-04-11T08:54:14.146Z,3.70
2023-04-11T08:56:51.936Z,3.60
2023-04-11T08:59:27.852Z,4.00
2023-04-11T09:02:25.274Z,4.60
2023-04-11T09:04:59.889Z,4.30
2023-04-11T09:07:35.672Z,4.20
2023-04-11T09:10:26.430Z,3.50
2023-04-11T09:13:01.146Z,3.30
2023-04-11T09:15:37.292Z,2.90
2023-04-11T09:18:11.119Z,2.70
2023-04-11T09:20:45.277Z,3.10
2023-04-11T09:23:32.059Z,2.90
2023-04-11T09:26:08.675Z,2.70
2023-04-11T09:28:53.142Z,2.00
2023-04-11T09:31:44.772Z,2.70
2023-04-11T09:34:28.548Z,1.50
2023-04-11T09:37:04.526Z,2.00
2023-04-11T09:39:38.390Z,2.30
2023-04-11T09:42:27.316Z,2.40
2023-04-11T09:45:01.539Z,2.40
2023-04-11T09:47:37.912Z,2.20
2023-04-11T09:52:47.874Z,2.50
2023-04-11T09:55:26.105Z,2.50
2023-04-11T09:58:02.967Z,2.90
2023-04-11T10:00:36.887Z,2.00
2023-04-11T10:03:10.786Z,2.90
2023-04-11T10:05:45.758Z,2.70
2023-04-11T10:08:29.021Z,1.90
2023-04-11T10:11:07.867Z,2.60
2023-04-11T10:13:46.498Z,2.20
2023-04-11T10:16:22.945Z,2.80
2023-04-11T10:19:27.769Z,3.00
2023-04-11T10:22:04.816Z,2.50
2023-04-11T10:24:40.625Z,3.90
2023-04-11T10:27:14.449Z,2.80
2023-04-11T10:29:55.028Z,2.50
2023-04-11T10:32:29.974Z,2.30
2023-04-11T10:35:26.331Z,2.50
2023-04-11T10:38:00.460Z,3.00
2023-04-11T10:40:34.968Z,3.20
2023-04-11T10:46:29.471Z,3.00
2023-04-11T10:49:02.748Z,2.20
2023-04-11T10:51:35.129Z,3.60
2023-04-11T10:54:26.477Z,3.50
2023-04-11T10:56:58.554Z,2.80
2023-04-11T11:00:00.833Z,4.70
2023-04-11T11:02:43.155Z,3.40
2023-04-11T11:05:25.186Z,3.10
2023-04-11T11:07:55.982Z,3.40
2023-04-11T11:10:46.875Z,4.10
2023-04-11T11:13:19.796Z,3.80
2023-04-11T11:15:52.794Z,2.90
2023-04-11T11:18:23.383Z,3.10
2023-04-11T11:20:57.519Z,3.60
2023-04-11T11:23:28.257Z,2.40
2023-04-11T11:26:00.960Z,3.30
2023-04-11T11:28:32.048Z,3.60
2023-04-11T11:31:04.178Z,3.70
2023-04-11T11:33:42.199Z,3.40
2023-04-11T11:36:13.283Z,4.20
2023-04-11T11:38:46.588Z,4.20
2023-04-11T11:41:17.825Z,4.20
2023-04-11T11:43:48.369Z,3.40
2023-04-11T11:46:21.568Z,4.50
2023-04-11T11:49:01.788Z,4.50
2023-04-11T11:51:42.697Z,4.80
2023-04-11T11:54:13.828Z,5.20
2023-04-11T11:56:52.668Z,5.10
2023-04-11T11:59:29.146Z,6.40
2023-04-11T12:04:30.653Z,5.80
2023-04-11T12:07:10.079Z,5.10
2023-04-11T12:09:41.107Z,5.40
2023-04-11T12:12:12.267Z,5.30
2023-04-11T12:14:42.724Z,4.20
2023-04-11T12:17:16.216Z,5.50
2023-04-11T12:19:46.805Z,5.90
2023-04-11T12:22:17.416Z,6.30
2023-04-11T12:24:48.568Z,5.30
2023-04-11T12:27:19.719Z,6.00
2023-04-11T12:29:52.061Z,5.20
2023-04-11T12:32:27.209Z,5.80
2023-04-11T12:34:58.274Z,5.00
2023-04-11T12:37:29.220Z,5.20
2023-04-11T12:40:00.232Z,4.70
2023-04-11T12:42:32.220Z,5.10
2023-04-11T12:45:04.396Z,4.90
2023-04-11T12:47:34.887Z,6.40
2023-04-11T12:50:07.920Z,6.40
2023-04-11T12:52:42.077Z,6.60
2023-04-11T12:55:14.683Z,5.60
2023-04-11T12:57:46.007Z,5.20
2023-04-11T13:00:19.174Z,4.40
2023-04-11T13:02:51.380Z,5.20
2023-04-11T13:05:27.655Z,4.70
2023-04-11T13:07:59.705Z,4.80
2023-04-11T13:10:30.539Z,4.70
2023-04-11T13:13:11.640Z,3.80
2023-04-11T13:15:48.637Z,4.80
2023-04-11T13:18:19.226Z,4.70
2023-04-11T13:20:49.859Z,4.80
2023-04-11T13:23:20.659Z,4.70
2023-04-11T13:26:00.752Z,4.80
2023-04-11T13:28:34.828Z,4.40
2023-04-11T13:31:10.699Z,3.90
2023-04-11T13:33:41.493Z,3.20
2023-04-11T13:36:13.571Z,4.80
2023-04-11T13:38:44.375Z,5.10
2023-04-11T13:41:15.061Z,3.90
2023-04-11T13:43:50.050Z,3.50
2023-04-11T13:46:25.276Z,3.60
2023-04-11T13:48:56.695Z,3.90
2023-04-11T13:51:30.012Z,4.20
2023-04-11T13:54:02.388Z,4.80
2023-04-11T13:56:32.972Z,4.10
2023-04-11T13:59:04.279Z,5.50
2023-04-11T14:01:35.362Z,4.80
2023-04-11T14:04:21.875Z,5.30
2023-04-11T14:06:53.757Z,5.70
2023-04-11T14:09:30.672Z,4.80
2023-04-11T14:12:03.030Z,5.30
2023-04-11T14:14:34.693Z,4.20
2023-04-11T14:17:07.913Z,3.80
2023-04-11T14:19:42.407Z,4.20
2023-04-11T14:22:17.103Z,5.10
2023-04-11T14:24:50.104Z,4.60
2023-04-11T14:27:20.526Z,4.50
2023-04-11T14:29:55.413Z,3.60
2023-04-11T14:32:27.230Z,4.60
2023-04-11T14:34:58.395Z,6.10
2023-04-11T14:37:29.932Z,5.40
2023-04-11T14:40:00.916Z,6.40
2023-04-11T14:42:32.626Z,6.30
2023-04-11T14:48:55.794Z,5.80
2023-04-11T14:51:28.826Z,5.00
2023-04-11T14:53:59.990Z,5.20
2023-04-11T14:56:32.240Z,5.40
2023-04-11T14:59:03.098Z,5.40
2023-04-11T15:01:33.968Z,5.60
2023-04-11T15:04:05.011Z,6.80
2023-04-11T15:06:39.797Z,7.20
2023-04-11T15:09:19.893Z,5.50
2023-04-11T15:11:56.801Z,6.10
2023-04-11T15:14:31.234Z,5.50
2023-04-11T15:17:05.094Z,5.80
2023-04-11T15:19:43.185Z,5.90
2023-04-11T15:22:13.841Z,6.70
2023-04-11T15:24:50.730Z,6.10
2023-04-11T15:27:24.345Z,5.80
2023-04-11T15:29:59.590Z,7.40
2023-04-11T15:32:30.479Z,6.80
2023-04-11T15:35:03.985Z,7.60
2023-04-11T15:37:34.498Z,8.00
2023-04-11T15:40:12.383Z,11.40
2023-04-11T15:42:45.109Z,12.60
2023-04-11T15:45:16.916Z,12.80
2023-04-11T15:47:55.241Z,22.50
2023-04-11T15:50:27.336Z,18.90
2023-04-11T15:53:03.148Z,20.20
2023-04-11T15:55:38.241Z,11.00
2023-04-11T15:58:13.207Z,10.30
2023-04-11T16:00:44.920Z,7.90
2023-04-11T16:03:32.486Z,7.00
2023-04-11T16:06:05.549Z,6.00
2023-04-11T16:08:36.141Z,7.90
2023-04-11T16:11:08.345Z,8.50
2023-04-11T16:13:43.893Z,9.30
2023-04-11T16:16:14.682Z,11.80
2023-04-11T16:18:48.286Z,8.90
2023-04-11T16:21:21.777Z,10.80
2023-04-11T16:23:55.326Z,10.20
2023-04-11T16:26:26.865Z,10.70
2023-04-11T16:29:00.388Z,12.40
2023-04-11T16:34:51.777Z,13.70
2023-04-11T16:37:26.265Z,11.70
2023-04-11T16:40:00.255Z,8.90
2023-04-11T16:42:31.547Z,9.30
2023-04-11T16:45:06.815Z,11.70
2023-04-11T16:47:39.401Z,7.70
2023-04-11T16:50:12.525Z,8.30
2023-04-11T16:52:51.138Z,8.60
2023-04-11T16:55:23.271Z,8.50
2023-04-11T16:57:56.127Z,9.60
2023-04-11T17:00:29.733Z,8.60
2023-04-11T17:03:14.519Z,9.20
2023-04-11T17:05:57.512Z,8.80
2023-04-11T17:08:30.508Z,8.10
2023-04-11T17:11:09.113Z,10.10
2023-04-11T17:13:45.758Z,11.00
2023-04-11T17:16:21.102Z,10.50
2023-04-11T17:18:53.473Z,10.00
2023-04-11T17:21:34.095Z,10.70
2023-04-11T17:24:05.256Z,9.90
2023-04-11T17:26:41.851Z,11.30
2023-04-11T17:29:13.477Z,11.00
2023-04-11T17:31:48.504Z,12.60
2023-04-11T17:34:19.274Z,13.90
2023-04-11T17:36:50.595Z,12.50
2023-04-11T17:39:23.423Z,12.70
2023-04-11T17:41:55.565Z,12.30
2023-04-11T17:44:26.974Z,13.70
2023-04-11T17:46:58.601Z,11.70
2023-04-11T17:49:31.714Z,11.10
2023-04-11T17:52:03.234Z,10.70
2023-04-11T17:54:51.473Z,10.30
2023-04-11T17:57:41.582Z,11.20
2023-04-11T18:00:23.571Z,11.50
2023-04-11T18:03:10.313Z,11.10
2023-04-11T18:06:38.051Z,12.40
2023-04-11T18:09:32.674Z,13.00
2023-04-11T18:12:34.525Z,12.70
2023-04-11T18:15:55.174Z,12.30
2023-04-11T18:21:48.374Z,11.10
2023-04-11T18:24:23.948Z,11.50
2023-04-11T18:27:03.982Z,12.60
2023-04-11T18:29:54.166Z,12.80
2023-04-11T18:32:32.350Z,12.50
2023-04-11T18:35:30.698Z,12.70
2023-04-11T18:38:16.189Z,14.50
2023-04-11T18:40:56.535Z,12.20
2023-04-11T18:43:38.624Z,14.10
2023-04-11T18:46:28.229Z,13.60
2023-04-11T18:49:22.636Z,15.20
2023-04-11T18:52:17.092Z,16.20
2023-04-11T18:55:22.284Z,14.90
2023-04-11T18:58:15.129Z,14.90
2023-04-11T19:00:54.326Z,15.30
2023-04-11T19:03:29.031Z,14.70
2023-04-11T19:06:18.650Z,14.60
2023-04-11T19:08:55.731Z,14.90
2023-04-11T19:11:45.063Z,14.70
2023-04-11T19:15:00.787Z,14.20
2023-04-11T19:18:26.093Z,16.90
2023-04-11T19:22:05.053Z,16.70
2023-04-11T19:25:00.865Z,13.80
2023-04-11T19:28:01.348Z,13.30
2023-04-11T19:31:05.199Z,15.10
2023-04-11T19:34:01.179Z,16.10
2023-04-11T19:36:56.546Z,19.00
2023-04-11T19:39:45.952Z,18.80
2023-04-11T19:42:43.322Z,17.00
2023-04-11T19:46:05.103Z,16.70
2023-04-11T19:48:44.545Z,17.80
2023-04-11T19:51:21.848Z,17.50
2023-04-11T19:53:59.428Z,16.00
2023-04-11T19:56:33.387Z,16.90
2023-04-11T19:59:04.701Z,15.80
2023-04-11T20:01:36.513Z,16.20
2023-04-11T20:04:32.500Z,18.00
2023-04-11T20:07:11.520Z,17.80
2023-04-11T20:09:56.672Z,16.90
2023-04-11T20:12:39.991Z,16.70
2023-04-11T20:15:55.925Z,15.90
2023-04-11T20:18:37.641Z,15.60
2023-04-11T20:21:17.865Z,15.10
2023-04-11T20:23:51.977Z,17.40
2023-04-11T20:26:29.025Z,15.80
2023-04-11T20:29:01.695Z,15.00
2023-04-11T20:31:43.929Z,15.70
2023-04-11T20:34:19.139Z,16.00
2023-04-11T20:36:56.759Z,15.30
2023-04-11T20:42:10.663Z,14.90
2023-04-11T20:44:50.426Z,18.50
2023-04-11T20:47:38.097Z,16.50
2023-04-11T20:50:21.399Z,15.90
2023-04-11T20:53:00.987Z,14.40
2023-04-11T20:55:43.088Z,14.90
2023-04-11T20:58:26.278Z,17.10
2023-04-11T21:01:00.326Z,14.90
2023-04-11T21:03:36.508Z,15.80
2023-04-11T21:06:11.723Z,16.20
2023-04-11T21:08:46.700Z,16.40
2023-04-11T21:11:23.497Z,14.50
2023-04-11T21:13:56.036Z,18.60
2023-04-11T21:16:29.208Z,15.60
2023-04-11T21:19:04.160Z,16.20
2023-04-11T21:21:46.858Z,16.90
2023-04-11T21:24:26.789Z,16.60
2023-04-11T21:27:00.069Z,16.90
2023-04-11T21:29:31.941Z,17.30
2023-04-11T21:32:03.569Z,16.10
2023-04-11T21:34:34.997Z,17.20
2023-04-11T21:37:05.661Z,16.10
2023-04-11T21:39:38.458Z,15.60
2023-04-11T21:42:09.214Z,15.80
2023-04-11T21:44:39.838Z,16.90
2023-04-11T21:47:10.628Z,16.60
2023-04-11T21:49:41.429Z,18.10
2023-04-11T21:52:12.057Z,18.10
2023-04-11T21:54:44.671Z,16.00
2023-04-11T21:57:15.938Z,17.00
2023-04-11T21:59:51.884Z,17.90
2023-04-11T22:02:29.180Z,17.70
2023-04-11T22:05:07.332Z,16.70
2023-04-11T22:07:39.050Z,15.40
2023-04-11T22:10:11.930Z,17.60
2023-04-11T22:12:45.915Z,16.20
2023-04-11T22:15:18.779Z,19.10
2023-04-11T22:17:50.498Z,16.90
2023-04-11T22:20:24.049Z,16.70
2023-04-11T22:22:57.755Z,14.50
2023-04-11T22:25:32.959Z,15.70
2023-04-11T22:28:04.761Z,16.70
2023-04-11T22:30:37.913Z,15.80
2023-04-11T22:33:13.522Z,14.10
2023-04-11T22:35:47.294Z,16.90
2023-04-11T22:38:17.743Z,13.70
2023-04-11T22:40:48.818Z,16.50
2023-04-11T22:43:19.371Z,17.10
2023-04-11T22:45:49.713Z,16.10
2023-04-11T22:48:20.602Z,16.20
2023-04-11T22:50:52.742Z,15.30
2023-04-11T22:53:24.742Z,16.50
2023-04-11T22:55:55.540Z,15.70
2023-04-11T22:58:26.012Z,15.30
2023-04-11T23:00:56.405Z,16.10
2023-04-11T23:06:17.029Z,16.30
2023-04-11T23:08:47.705Z,15.60
2023-04-11T23:11:18.172Z,16.20
2023-04-11T23:13:49.992Z,17.20
2023-04-11T23:16:23.275Z,17.20
2023-04-11T23:19:04.559Z,16.80
2023-04-11T23:21:43.004Z,17.30
2023-04-11T23:24:13.747Z,17.60
2023-04-11T23:26:45.152Z,17.30
2023-04-11T23:29:22.069Z,16.50
2023-04-11T23:31:53.298Z,17.80
2023-04-11T23:34:24.155Z,16.40
2023-04-11T23:36:57.856Z,18.00
2023-04-11T23:39:28.286Z,17.80
2023-04-11T23:41:58.661Z,16.40
2023-04-11T23:44:28.802Z,15.60
2023-04-11T23:47:00.681Z,17.40
2023-04-11T23:49:32.550Z,15.40
2023-04-11T23:52:03.564Z,15.00
2023-04-11T23:54:36.200Z,15.10
2023-04-11T23:57:07.033Z,18.10
2023-04-11T23:59:38.221Z,14.90
